createdAt,value
2019-05-01T00:00:24.317Z,38.00
2019-05-01T00:01:24.275Z,38.50
2019-05-01T00:02:24.234Z,37.40
2019-05-01T00:03:24.194Z,38.10
2019-05-01T00:04:24.156Z,37.80
2019-05-01T00:05:24.117Z,38.40
2019-05-01T00:06:24.080Z,39.70
2019-05-01T00:07:24.038Z,39.10
2019-05-01T00:08:24.000Z,38.90
2019-05-01T00:09:23.960Z,37.70
2019-05-01T00:10:23.920Z,37.70
2019-05-01T00:11:23.880Z,37.80
2019-05-01T00:12:23.842Z,38.70
2019-05-01T00:13:23.803Z,39.70
2019-05-01T00:14:23.766Z,38.60
2019-05-01T00:15:23.724Z,40.10
2019-05-01T00:16:23.687Z,39.50
2019-05-01T00:17:23.646Z,38.00
2019-05-01T00:18:23.606Z,38.60
2019-05-01T00:19:23.574Z,37.90
2019-05-01T00:20:23.528Z,39.40
2019-05-01T00:21:23.489Z,38.80
2019-05-01T00:22:23.450Z,38.70
2019-05-01T00:23:23.410Z,39.80
2019-05-01T00:24:23.371Z,38.90
2019-05-01T00:25:23.331Z,39.20
2019-05-01T00:26:23.294Z,41.30
2019-05-01T00:27:23.253Z,40.20
2019-05-01T00:28:23.215Z,39.70
2019-05-01T00:29:23.180Z,40.30
2019-05-01T00:30:29.660Z,39.10
2019-05-01T00:31:23.093Z,39.30
2019-05-01T00:32:23.057Z,37.90
2019-05-01T00:33:23.018Z,37.90
2019-05-01T00:34:22.991Z,40.00
2019-05-01T00:35:22.937Z,39.60
2019-05-01T00:36:22.896Z,38.70
2019-05-01T00:37:22.856Z,39.80
2019-05-01T00:38:22.815Z,40.30
2019-05-01T00:39:22.778Z,39.30
2019-05-01T00:40:22.741Z,40.00
2019-05-01T00:41:22.705Z,39.60
2019-05-01T00:42:22.664Z,39.10
2019-05-01T00:43:22.623Z,39.50
2019-05-01T00:44:22.581Z,40.40
2019-05-01T00:45:22.543Z,39.10
2019-05-01T00:46:22.507Z,40.20
2019-05-01T00:47:22.468Z,38.90
2019-05-01T00:48:22.424Z,38.70
2019-05-01T00:49:22.383Z,39.10
2019-05-01T00:50:22.343Z,38.70
2019-05-01T00:51:22.306Z,38.70
2019-05-01T00:52:22.269Z,39.40
2019-05-01T00:53:22.231Z,41.40
2019-05-01T00:54:22.193Z,39.70
2019-05-01T00:55:22.150Z,40.20
2019-05-01T00:56:22.110Z,40.60
2019-05-01T00:57:22.068Z,40.00
2019-05-01T00:58:22.028Z,40.00
2019-05-01T00:59:21.990Z,40.10
2019-05-01T01:00:21.955Z,39.50
2019-05-01T01:01:21.916Z,40.00
2019-05-01T01:02:21.870Z,41.40
2019-05-01T01:03:21.832Z,41.30
2019-05-01T01:04:21.794Z,40.60
2019-05-01T01:05:21.757Z,40.80
2019-05-01T01:06:21.718Z,41.80
2019-05-01T01:07:21.676Z,40.80
2019-05-01T01:08:21.635Z,40.80
2019-05-01T01:09:21.594Z,40.00
2019-05-01T01:10:21.559Z,41.30
2019-05-01T01:11:21.518Z,40.30
2019-05-01T01:12:21.478Z,40.50
2019-05-01T01:13:21.435Z,39.80
2019-05-01T01:14:21.395Z,40.30
2019-05-01T01:15:21.358Z,41.40
2019-05-01T01:16:21.321Z,40.40
2019-05-01T01:17:21.286Z,40.40
2019-05-01T01:18:21.239Z,40.50
2019-05-01T01:19:21.201Z,41.00
2019-05-01T01:20:21.162Z,41.10
2019-05-01T01:21:21.125Z,41.70
2019-05-01T01:22:21.089Z,42.10
2019-05-01T01:23:21.043Z,41.60
2019-05-01T01:24:21.001Z,41.70
2019-05-01T01:25:20.962Z,41.90
2019-05-01T01:26:20.920Z,42.30
2019-05-01T01:27:20.883Z,41.30
2019-05-01T01:28:20.849Z,42.10
2019-05-01T01:29:20.806Z,41.40
2019-05-01T01:30:20.768Z,42.50
2019-05-01T01:31:20.725Z,41.70
2019-05-01T01:32:20.684Z,43.00
2019-05-01T01:33:20.645Z,43.00
2019-05-01T01:34:20.608Z,41.10
2019-05-01T01:35:20.567Z,42.90
2019-05-01T01:36:20.526Z,42.20
2019-05-01T01:37:20.502Z,42.70
2019-05-01T01:38:20.443Z,41.70
2019-05-01T01:39:20.406Z,41.80
2019-05-01T01:40:20.368Z,42.70
2019-05-01T01:41:20.331Z,42.90
2019-05-01T01:42:20.289Z,43.00
2019-05-01T01:43:20.251Z,43.40
2019-05-01T01:44:20.208Z,42.60
2019-05-01T01:45:20.166Z,43.30
2019-05-01T01:46:20.125Z,43.70
2019-05-01T01:47:20.087Z,42.40
2019-05-01T01:48:20.050Z,43.60
2019-05-01T01:49:20.011Z,44.40
2019-05-01T01:50:19.966Z,44.90
2019-05-01T01:51:19.929Z,42.80
2019-05-01T01:52:19.890Z,42.40
2019-05-01T01:53:19.852Z,42.30
2019-05-01T01:54:19.811Z,41.20
2019-05-01T01:55:19.771Z,42.50
2019-05-01T01:56:19.729Z,42.60
2019-05-01T01:57:19.687Z,42.90
2019-05-01T01:58:19.646Z,43.10
2019-05-01T01:59:19.607Z,43.00
2019-05-01T02:00:19.571Z,43.60
2019-05-01T02:01:19.532Z,43.10
2019-05-01T02:02:28.157Z,44.10
2019-05-01T02:04:23.890Z,42.60
2019-05-01T02:05:23.825Z,43.90
2019-05-01T02:06:23.786Z,43.20
2019-05-01T02:07:23.742Z,43.10
2019-05-01T02:08:23.703Z,42.70
2019-05-01T02:09:23.661Z,43.00
2019-05-01T02:10:23.718Z,42.10
2019-05-01T02:11:23.584Z,41.80
2019-05-01T02:12:23.546Z,43.00
2019-05-01T02:13:23.506Z,42.20
2019-05-01T02:14:23.463Z,43.70
2019-05-01T02:15:23.421Z,42.90
2019-05-01T02:16:23.380Z,43.70
2019-05-01T02:17:23.346Z,44.50
2019-05-01T02:18:23.303Z,46.30
2019-05-01T02:19:23.263Z,45.00
2019-05-01T02:20:23.219Z,44.70
2019-05-01T02:21:23.185Z,44.60
2019-05-01T02:22:23.144Z,45.30
2019-05-01T02:23:23.105Z,45.10
2019-05-01T02:24:23.066Z,44.50
2019-05-01T02:25:23.025Z,43.60
2019-05-01T02:26:22.981Z,41.80
2019-05-01T02:27:22.940Z,41.40
2019-05-01T02:28:22.898Z,41.20
2019-05-01T02:29:22.857Z,40.60
2019-05-01T02:30:22.819Z,38.70
2019-05-01T02:31:28.419Z,39.20
2019-05-01T02:32:22.746Z,39.30
2019-05-01T02:33:22.698Z,39.90
2019-05-01T02:34:22.660Z,40.90
2019-05-01T02:35:22.620Z,39.30
2019-05-01T02:36:22.582Z,41.00
2019-05-01T02:37:22.543Z,41.60
2019-05-01T02:38:22.504Z,45.00
2019-05-01T02:39:22.478Z,45.50
2019-05-01T02:40:22.418Z,45.50
2019-05-01T02:41:22.377Z,44.80
2019-05-01T02:42:22.337Z,45.70
2019-05-01T02:43:22.301Z,45.40
2019-05-01T02:44:22.261Z,44.60
2019-05-01T02:45:22.222Z,43.10
2019-05-01T02:46:22.178Z,44.10
2019-05-01T02:47:22.137Z,43.30
2019-05-01T02:48:22.106Z,43.10
2019-05-01T02:49:22.071Z,40.00
2019-05-01T02:50:22.021Z,42.10
2019-05-01T02:51:21.978Z,43.80
2019-05-01T02:52:21.934Z,44.70
2019-05-01T02:53:21.900Z,45.50
2019-05-01T02:54:21.859Z,44.60
2019-05-01T02:55:21.820Z,45.30
2019-05-01T02:56:21.783Z,46.30
2019-05-01T02:57:21.742Z,46.90
2019-05-01T02:58:21.697Z,44.10
2019-05-01T02:59:21.701Z,43.20
2019-05-01T03:00:21.613Z,44.20
2019-05-01T03:01:21.573Z,43.50
2019-05-01T03:02:21.534Z,41.90
2019-05-01T03:03:21.497Z,41.90
2019-05-01T03:04:21.457Z,42.30
2019-05-01T03:05:21.422Z,41.70
2019-05-01T03:06:21.374Z,40.50
2019-05-01T03:07:21.338Z,39.10
2019-05-01T03:08:21.305Z,37.50
2019-05-01T03:09:21.258Z,38.60
2019-05-01T03:10:21.213Z,38.10
2019-05-01T03:11:21.173Z,38.30
2019-05-01T03:12:21.129Z,37.70
2019-05-01T03:13:21.093Z,39.20
2019-05-01T03:14:21.051Z,40.40
2019-05-01T03:15:21.013Z,39.70
2019-05-01T03:16:20.976Z,41.70
2019-05-01T03:17:20.937Z,38.10
2019-05-01T03:18:20.893Z,39.50
2019-05-01T03:19:20.849Z,39.60
2019-05-01T03:20:20.809Z,40.20
2019-05-01T03:21:20.774Z,40.60
2019-05-01T03:22:20.730Z,40.60
2019-05-01T03:37:36.720Z,32.00
2019-05-01T03:38:36.656Z,34.70
2019-05-01T03:39:36.610Z,40.00
2019-05-01T03:40:36.565Z,43.00
2019-05-01T03:41:36.521Z,42.90
2019-05-01T03:42:36.476Z,42.90
2019-05-01T03:43:36.432Z,44.20
2019-05-01T03:44:36.392Z,43.60
2019-05-01T03:45:36.353Z,42.60
2019-05-01T03:46:36.309Z,41.70
2019-05-01T03:47:36.262Z,39.80
2019-05-01T03:48:36.223Z,39.50
2019-05-01T03:49:36.182Z,39.80
2019-05-01T03:50:36.142Z,39.60
2019-05-01T03:51:36.100Z,38.30
2019-05-01T03:52:36.058Z,39.20
2019-05-01T03:53:36.015Z,36.90
2019-05-01T03:54:35.977Z,36.00
2019-05-01T03:55:35.929Z,37.80
2019-05-01T03:56:35.893Z,39.20
2019-05-01T03:57:35.857Z,38.10
2019-05-01T03:58:35.813Z,39.70
2019-05-01T03:59:35.778Z,39.40
2019-05-01T04:00:35.732Z,38.50
2019-05-01T04:01:35.687Z,38.70
2019-05-01T04:02:35.661Z,40.90
2019-05-01T04:03:35.609Z,42.40
2019-05-01T04:04:35.566Z,42.50
2019-05-01T04:05:35.525Z,46.10
2019-05-01T04:06:35.481Z,44.30
2019-05-01T04:07:36.347Z,44.20
2019-05-01T04:08:35.400Z,45.10
2019-05-01T04:09:35.359Z,44.30
2019-05-01T04:10:35.321Z,44.70
2019-05-01T04:11:35.285Z,42.80
2019-05-01T04:12:35.239Z,42.10
2019-05-01T04:13:35.195Z,42.10
2019-05-01T04:14:38.879Z,42.10
2019-05-01T04:15:35.112Z,42.50
2019-05-01T04:16:35.090Z,43.80
2019-05-01T04:17:35.037Z,43.10
2019-05-01T04:18:35.001Z,42.20
2019-05-01T04:19:34.950Z,43.10
2019-05-01T04:20:34.920Z,43.30
2019-05-01T04:21:34.873Z,43.40
2019-05-01T04:22:34.833Z,43.30
2019-05-01T04:23:34.794Z,43.90
2019-05-01T04:24:34.752Z,43.60
2019-05-01T04:25:34.708Z,43.20
2019-05-01T04:26:34.666Z,42.60
2019-05-01T04:27:34.625Z,42.90
2019-05-01T04:28:34.593Z,42.50
2019-05-01T04:29:34.548Z,41.90
2019-05-01T04:30:34.509Z,43.30
2019-05-01T04:31:34.468Z,43.20
2019-05-01T04:32:51.086Z,42.90
2019-05-01T04:33:34.381Z,42.40
2019-05-01T04:34:34.341Z,41.60
2019-05-01T04:35:34.313Z,43.00
2019-05-01T04:36:34.264Z,43.80
2019-05-01T04:37:34.220Z,43.90
2019-05-01T04:38:34.183Z,43.60
2019-05-01T04:39:34.138Z,42.50
2019-05-01T04:40:34.099Z,42.90
2019-05-01T04:41:34.060Z,43.50
2019-05-01T04:42:34.022Z,42.80
2019-05-01T04:43:33.987Z,44.20
2019-05-01T04:44:33.945Z,43.30
2019-05-01T04:45:33.896Z,43.50
2019-05-01T04:46:33.854Z,46.00
2019-05-01T04:47:33.816Z,45.40
2019-05-01T04:48:33.776Z,44.00
2019-05-01T04:49:33.738Z,43.80
2019-05-01T04:50:33.702Z,45.20
2019-05-01T04:51:33.652Z,43.00
2019-05-01T04:52:33.622Z,43.20
2019-05-01T04:53:33.574Z,42.70
2019-05-01T04:54:33.535Z,43.80
2019-05-01T04:55:33.497Z,43.60
2019-05-01T04:56:33.455Z,41.90
2019-05-01T04:57:33.412Z,42.20
2019-05-01T04:58:33.369Z,40.50
2019-05-01T04:59:33.329Z,42.20
2019-05-01T05:00:33.293Z,41.80
2019-05-01T05:01:33.251Z,41.50
2019-05-01T05:02:33.214Z,41.30
2019-05-01T05:03:33.173Z,40.40
2019-05-01T05:04:33.136Z,41.70
2019-05-01T05:05:33.089Z,43.00
2019-05-01T05:06:33.047Z,40.80
2019-05-01T05:07:33.012Z,39.80
2019-05-01T05:08:32.969Z,39.70
2019-05-01T05:09:32.927Z,40.90
2019-05-01T05:10:32.887Z,41.40
2019-05-01T05:11:32.845Z,41.00
2019-05-01T05:12:32.808Z,42.60
2019-05-01T05:13:32.768Z,42.40
2019-05-01T05:14:32.729Z,42.00
2019-05-01T05:15:32.689Z,41.70
2019-05-01T05:16:32.648Z,41.80
2019-05-01T05:17:32.615Z,42.70
2019-05-01T05:18:32.564Z,42.70
2019-05-01T05:19:32.523Z,43.00
2019-05-01T05:20:32.490Z,42.80
2019-05-01T05:21:32.445Z,42.20
2019-05-01T05:22:32.410Z,42.60
2019-05-01T05:23:32.363Z,41.80
2019-05-01T05:24:32.323Z,41.20
2019-05-01T05:25:32.285Z,41.70
2019-05-01T05:26:32.246Z,42.50
2019-05-01T05:27:32.209Z,43.30
2019-05-01T05:28:32.165Z,43.10
2019-05-01T05:29:32.121Z,43.00
2019-05-01T05:30:32.081Z,42.20
2019-05-01T05:31:32.042Z,42.00
2019-05-01T05:32:32.003Z,42.40
2019-05-01T05:33:31.964Z,41.00
2019-05-01T05:34:31.926Z,41.90
2019-05-01T05:35:31.886Z,42.20
2019-05-01T05:36:31.843Z,41.80
2019-05-01T05:37:31.802Z,44.30
2019-05-01T05:38:31.761Z,44.10
2019-05-01T05:39:31.729Z,45.00
2019-05-01T05:40:31.686Z,45.90
2019-05-01T05:41:31.642Z,51.20
2019-05-01T05:42:31.599Z,54.30
2019-05-01T05:43:31.559Z,57.50
2019-05-01T05:44:31.550Z,58.70
2019-05-01T05:45:31.483Z,56.50
2019-05-01T05:46:31.447Z,57.20
2019-05-01T05:47:31.405Z,55.60
2019-05-01T05:48:31.363Z,54.30
2019-05-01T05:49:31.321Z,53.10
2019-05-01T05:50:31.280Z,50.70
2019-05-01T05:51:31.239Z,49.10
2019-05-01T05:52:31.201Z,50.00
2019-05-01T05:53:31.164Z,51.00
2019-05-01T05:54:31.127Z,52.50
2019-05-01T05:55:31.078Z,54.20
2019-05-01T05:56:31.041Z,53.30
2019-05-01T05:57:31.003Z,53.50
2019-05-01T05:58:30.969Z,52.80
2019-05-01T05:59:30.926Z,54.90
2019-05-01T06:00:30.883Z,55.10
2019-05-01T06:01:30.844Z,56.50
2019-05-01T06:02:30.799Z,57.40
2019-05-01T06:03:31.700Z,56.80
2019-05-01T06:04:30.723Z,57.90
2019-05-01T06:05:30.683Z,57.20
2019-05-01T06:06:30.645Z,56.80
2019-05-01T06:07:30.606Z,57.20
2019-05-01T06:08:30.563Z,57.10
2019-05-01T06:09:30.523Z,58.00
2019-05-01T06:10:30.480Z,58.00
2019-05-01T06:11:34.075Z,57.80
2019-05-01T06:12:30.410Z,57.20
2019-05-01T06:13:30.362Z,57.80
2019-05-01T06:14:31.450Z,58.50
2019-05-01T06:15:30.282Z,60.20
2019-05-01T06:16:30.243Z,56.80
2019-05-01T06:17:30.205Z,57.20
2019-05-01T06:18:30.173Z,55.40
2019-05-01T06:19:30.132Z,57.10
2019-05-01T06:20:30.086Z,56.80
2019-05-01T06:21:34.695Z,55.80
2019-05-01T06:22:30.003Z,56.00
2019-05-01T06:23:29.961Z,58.80
2019-05-01T06:24:29.929Z,58.30
2019-05-01T06:25:29.886Z,56.80
2019-05-01T06:26:31.938Z,57.10
2019-05-01T06:27:29.805Z,58.00
2019-05-01T06:28:29.820Z,56.60
2019-05-01T06:29:31.068Z,56.40
2019-05-01T06:30:29.690Z,55.90
2019-05-01T06:31:29.649Z,55.90
2019-05-01T06:32:33.490Z,55.60
2019-05-01T06:33:29.568Z,55.40
2019-05-01T06:34:29.792Z,55.10
2019-05-01T06:35:29.485Z,56.90
2019-05-01T06:36:29.450Z,55.70
2019-05-01T06:37:29.409Z,55.90
2019-05-01T06:38:31.615Z,56.10
2019-05-01T06:39:29.332Z,58.00
2019-05-01T06:40:29.294Z,58.30
2019-05-01T06:41:33.731Z,57.90
2019-05-01T06:42:29.207Z,56.70
2019-05-01T06:43:29.172Z,56.70
2019-05-01T06:44:33.412Z,54.80
2019-05-01T06:45:29.092Z,55.50
2019-05-01T06:46:29.200Z,55.00
2019-05-01T06:47:29.011Z,56.80
2019-05-01T06:48:28.971Z,57.10
2019-05-01T06:49:29.815Z,57.90
2019-05-01T06:50:31.742Z,56.90
2019-05-01T06:51:28.855Z,56.00
2019-05-01T06:52:29.324Z,55.80
2019-05-01T06:53:28.772Z,57.00
2019-05-01T06:54:28.733Z,56.20
2019-05-01T06:55:28.938Z,55.20
2019-05-01T06:56:28.652Z,56.90
2019-05-01T06:57:28.623Z,55.80
2019-05-01T06:58:28.577Z,56.80
2019-05-01T06:59:31.495Z,55.90
2019-05-01T07:00:28.494Z,56.80
2019-05-01T07:01:28.459Z,55.80
2019-05-01T07:02:29.990Z,55.70
2019-05-01T07:03:28.378Z,56.90
2019-05-01T07:04:32.444Z,56.10
2019-05-01T07:05:28.297Z,55.70
2019-05-01T07:06:31.041Z,56.20
2019-05-01T07:07:28.220Z,52.90
2019-05-01T07:08:29.564Z,54.50
2019-05-01T07:09:28.435Z,56.60
2019-05-01T07:10:31.487Z,56.70
2019-05-01T07:11:28.076Z,56.40
2019-05-01T07:12:28.390Z,58.30
2019-05-01T07:13:27.979Z,57.50
2019-05-01T07:14:27.946Z,56.90
2019-05-01T07:15:28.461Z,57.20
2019-05-01T07:16:27.868Z,57.00
2019-05-01T07:17:27.821Z,57.70
2019-05-01T07:18:29.189Z,57.80
2019-05-01T07:19:27.745Z,55.10
2019-05-01T07:20:27.705Z,56.90
2019-05-01T07:21:32.392Z,58.50
2019-05-01T07:22:27.629Z,58.70
2019-05-01T07:23:27.592Z,58.30
2019-05-01T07:24:27.983Z,57.80
2019-05-01T07:25:27.506Z,57.60
2019-05-01T07:26:27.468Z,56.40
2019-05-01T07:27:27.429Z,58.80
2019-05-01T07:28:28.763Z,57.70
2019-05-01T07:29:27.353Z,56.40
2019-05-01T07:30:27.313Z,58.20
2019-05-01T07:31:30.895Z,57.20
2019-05-01T07:32:27.230Z,57.90
2019-05-01T07:33:27.196Z,57.40
2019-05-01T07:34:27.452Z,60.30
2019-05-01T07:35:27.117Z,58.80
2019-05-01T07:36:27.078Z,59.30
2019-05-01T07:37:27.782Z,59.90
2019-05-01T07:38:26.995Z,61.70
2019-05-01T07:39:26.961Z,60.40
2019-05-01T07:40:29.165Z,60.80
2019-05-01T07:41:26.881Z,60.60
2019-05-01T07:42:26.839Z,57.40
2019-05-01T07:43:26.801Z,57.70
2019-05-01T07:44:30.098Z,59.80
2019-05-01T07:45:26.741Z,58.90
2019-05-01T07:46:26.683Z,58.80
2019-05-01T07:47:30.594Z,58.00
2019-05-01T07:48:26.605Z,58.00
2019-05-01T07:49:26.563Z,59.80
2019-05-01T07:50:31.588Z,59.90
2019-05-01T07:51:26.483Z,60.20
2019-05-01T07:52:26.443Z,60.00
2019-05-01T07:53:28.381Z,60.80
2019-05-01T07:54:26.368Z,62.10
2019-05-01T07:55:26.328Z,64.00
2019-05-01T07:56:28.278Z,62.30
2019-05-01T07:57:26.246Z,60.20
2019-05-01T07:58:26.211Z,59.90
2019-05-01T07:59:27.467Z,59.50
2019-05-01T08:00:26.132Z,58.60
2019-05-01T08:01:26.102Z,60.00
2019-05-01T08:02:30.841Z,58.30
2019-05-01T08:03:26.015Z,57.80
2019-05-01T08:04:35.821Z,59.10
2019-05-01T08:05:25.937Z,60.50
2019-05-01T08:06:25.899Z,61.40
2019-05-01T08:07:27.719Z,59.40
2019-05-01T08:08:25.821Z,60.40
2019-05-01T08:09:25.777Z,62.20
2019-05-01T08:10:30.442Z,58.80
2019-05-01T08:11:25.701Z,59.00
2019-05-01T08:12:25.895Z,56.20
2019-05-01T08:13:25.625Z,63.30
2019-05-01T08:14:25.584Z,61.30
2019-05-01T08:15:27.591Z,61.40
2019-05-01T08:16:25.510Z,62.80
2019-05-01T08:17:25.464Z,65.90
2019-05-01T08:18:27.945Z,63.40
2019-05-01T08:19:25.389Z,66.30
2019-05-01T08:20:25.353Z,66.70
2019-05-01T08:21:26.025Z,65.60
2019-05-01T08:22:25.275Z,66.50
2019-05-01T08:23:25.232Z,67.70
2019-05-01T08:24:25.200Z,69.80
2019-05-01T08:25:28.651Z,69.90
2019-05-01T08:26:25.117Z,68.20
2019-05-01T08:27:25.077Z,69.90
2019-05-01T08:28:27.682Z,66.10
2019-05-01T08:29:24.996Z,65.00
2019-05-01T08:30:24.958Z,68.00
2019-05-01T08:31:27.880Z,65.60
2019-05-01T08:32:24.878Z,65.40
2019-05-01T08:33:24.846Z,64.80
2019-05-01T08:34:25.326Z,63.40
2019-05-01T08:35:24.762Z,64.80
2019-05-01T08:36:24.721Z,67.50
2019-05-01T08:37:27.065Z,69.50
2019-05-01T08:38:24.648Z,70.60
2019-05-01T08:39:24.608Z,69.90
2019-05-01T08:40:24.573Z,68.10
2019-05-01T08:41:27.159Z,66.20
2019-05-01T08:42:24.488Z,68.50
2019-05-01T08:43:24.449Z,68.80
2019-05-01T08:44:24.860Z,69.50
2019-05-01T08:45:24.375Z,68.50
2019-05-01T08:46:24.949Z,68.00
2019-05-01T08:47:25.907Z,66.90
2019-05-01T08:48:24.258Z,66.80
2019-05-01T08:49:24.213Z,67.10
2019-05-01T08:50:24.679Z,66.20
2019-05-01T08:51:24.138Z,67.00
2019-05-01T08:52:24.105Z,68.00
2019-05-01T08:53:24.056Z,63.60
2019-05-01T08:54:24.020Z,63.50
2019-05-01T08:55:23.981Z,64.30
2019-05-01T08:56:23.944Z,65.70
2019-05-01T08:57:23.908Z,62.70
2019-05-01T08:58:23.865Z,61.80
2019-05-01T08:59:25.660Z,62.10
2019-05-01T09:00:23.790Z,62.90
2019-05-01T09:01:23.745Z,65.50
2019-05-01T09:02:23.707Z,66.30
2019-05-01T09:03:23.668Z,67.60
2019-05-01T09:04:25.218Z,66.50
2019-05-01T09:05:28.860Z,67.50
2019-05-01T09:06:34.321Z,67.80
2019-05-01T09:07:24.160Z,65.20
2019-05-01T09:08:27.170Z,69.30
2019-05-01T09:09:23.439Z,67.70
2019-05-01T09:10:23.396Z,68.90
2019-05-01T09:11:23.357Z,67.20
2019-05-01T09:12:23.325Z,66.90
2019-05-01T09:13:23.786Z,67.10
2019-05-01T09:14:23.237Z,65.70
2019-05-01T09:15:23.198Z,64.90
2019-05-01T09:16:23.367Z,65.70
2019-05-01T09:17:23.123Z,65.30
2019-05-01T09:18:23.087Z,69.80
2019-05-01T09:19:23.044Z,66.80
2019-05-01T09:20:23.007Z,68.00
2019-05-01T09:21:22.961Z,67.60
2019-05-01T09:22:22.929Z,65.00
2019-05-01T09:23:22.889Z,64.90
2019-05-01T09:24:23.042Z,65.50
2019-05-01T09:25:22.806Z,63.10
2019-05-01T09:26:22.767Z,65.60
2019-05-01T09:27:24.005Z,81.50
2019-05-01T09:28:22.690Z,71.70
2019-05-01T09:29:22.654Z,65.20
2019-05-01T09:30:26.793Z,64.00
2019-05-01T09:31:22.576Z,66.50
2019-05-01T09:32:22.539Z,66.20
2019-05-01T09:33:26.251Z,63.00
2019-05-01T09:34:22.457Z,64.40
2019-05-01T09:35:22.419Z,65.70
2019-05-01T09:36:22.393Z,63.50
2019-05-01T09:51:05.459Z,58.10
2019-05-01T09:52:04.753Z,60.20
2019-05-01T09:53:04.710Z,67.90
2019-05-01T09:54:05.617Z,68.10
2019-05-01T09:55:04.622Z,68.10
2019-05-01T09:56:07.657Z,67.80
2019-05-01T09:57:04.545Z,69.70
2019-05-01T09:58:04.502Z,71.90
2019-05-01T09:59:04.462Z,73.70
2019-05-01T10:00:04.416Z,76.00
2019-05-01T10:01:04.378Z,77.00
2019-05-01T10:02:07.851Z,76.50
2019-05-01T10:03:04.299Z,76.70
2019-05-01T10:04:05.610Z,73.80
2019-05-01T10:05:06.645Z,76.90
2019-05-01T10:06:04.176Z,75.30
2019-05-01T10:07:04.137Z,74.80
2019-05-01T10:08:05.318Z,71.10
2019-05-01T10:09:04.059Z,70.90
2019-05-01T10:10:04.021Z,73.30
2019-05-01T10:11:05.221Z,73.80
2019-05-01T10:12:03.939Z,73.90
2019-05-01T10:13:03.900Z,76.40
2019-05-01T10:14:04.187Z,74.30
2019-05-01T10:15:03.819Z,75.20
2019-05-01T10:16:03.784Z,75.60
2019-05-01T10:17:03.744Z,74.50
2019-05-01T10:18:03.702Z,72.20
2019-05-01T10:19:03.663Z,71.30
2019-05-01T10:20:03.629Z,72.00
2019-05-01T10:21:03.586Z,71.70
2019-05-01T10:22:03.771Z,72.10
2019-05-01T10:23:03.519Z,70.30
2019-05-01T10:24:03.466Z,71.00
2019-05-01T10:25:03.427Z,71.90
2019-05-01T10:26:03.390Z,71.40
2019-05-01T10:27:03.347Z,70.80
2019-05-01T10:28:07.110Z,71.90
2019-05-01T10:29:03.272Z,71.00
2019-05-01T10:30:03.233Z,70.00
2019-05-01T10:31:07.017Z,74.90
2019-05-01T10:32:03.153Z,72.20
2019-05-01T10:33:03.115Z,72.30
2019-05-01T10:34:07.517Z,71.20
2019-05-01T10:35:03.044Z,72.40
2019-05-01T10:36:02.997Z,76.20
2019-05-01T10:37:02.958Z,74.70
2019-05-01T10:38:04.695Z,74.10
2019-05-01T10:39:02.878Z,76.40
2019-05-01T10:40:02.849Z,72.90
2019-05-01T10:41:04.181Z,73.50
2019-05-01T10:42:02.765Z,73.10
2019-05-01T10:43:02.728Z,72.90
2019-05-01T10:44:02.701Z,69.50
2019-05-01T10:45:02.647Z,74.60
2019-05-01T10:46:02.620Z,74.10
2019-05-01T10:47:02.566Z,72.90
2019-05-01T10:48:02.661Z,73.70
2019-05-01T10:49:02.493Z,71.40
2019-05-01T10:50:02.457Z,70.00
2019-05-01T10:51:02.417Z,69.80
2019-05-01T10:52:13.582Z,68.60
2019-05-01T10:53:02.337Z,69.50
2019-05-01T10:54:02.299Z,67.80
2019-05-01T10:55:02.261Z,69.00
2019-05-01T10:56:02.216Z,66.30
2019-05-01T10:57:03.333Z,64.50
2019-05-01T10:58:03.427Z,64.40
2019-05-01T10:59:02.100Z,65.80
2019-05-01T11:00:02.066Z,66.60
2019-05-01T11:01:02.026Z,67.90
2019-05-01T11:02:01.987Z,66.40
2019-05-01T11:03:01.951Z,66.40
2019-05-01T11:04:01.908Z,69.40
2019-05-01T11:05:01.873Z,67.80
2019-05-01T11:06:01.834Z,67.60
2019-05-01T11:07:01.796Z,71.40
2019-05-01T11:08:01.750Z,69.70
2019-05-01T11:09:01.714Z,66.50
2019-05-01T11:10:01.675Z,68.60
2019-05-01T11:11:01.635Z,66.70
2019-05-01T11:12:01.601Z,69.50
2019-05-01T11:13:01.561Z,69.50
2019-05-01T11:14:01.524Z,68.70
2019-05-01T11:15:01.485Z,68.60
2019-05-01T11:16:01.448Z,70.40
2019-05-01T11:17:01.404Z,69.40
2019-05-01T11:18:01.365Z,72.30
2019-05-01T11:19:01.329Z,70.50
2019-05-01T11:20:01.385Z,68.10
2019-05-01T11:21:01.259Z,70.70
2019-05-01T11:22:01.212Z,68.70
2019-05-01T11:23:01.171Z,68.20
2019-05-01T11:24:01.141Z,70.40
2019-05-01T11:25:01.100Z,69.80
2019-05-01T11:26:01.059Z,70.80
2019-05-01T11:27:01.023Z,70.40
2019-05-01T11:28:00.980Z,71.60
2019-05-01T11:29:00.944Z,70.90
2019-05-01T11:30:00.905Z,70.80
2019-05-01T11:31:00.864Z,70.60
2019-05-01T11:32:00.832Z,69.20
2019-05-01T11:33:00.793Z,69.30
2019-05-01T11:34:00.754Z,69.50
2019-05-01T11:35:00.718Z,70.80
2019-05-01T11:36:09.171Z,69.50
2019-05-01T11:37:00.639Z,71.50
2019-05-01T11:38:00.604Z,67.10
2019-05-01T11:39:00.564Z,71.00
2019-05-01T11:40:00.524Z,70.10
2019-05-01T11:41:00.488Z,67.80
2019-05-01T11:42:00.447Z,66.80
2019-05-01T11:43:02.639Z,64.50
2019-05-01T11:44:00.375Z,68.00
2019-05-01T11:45:00.336Z,70.40
2019-05-01T11:46:00.301Z,68.10
2019-05-01T11:47:00.261Z,67.30
2019-05-01T11:48:00.218Z,64.60
2019-05-01T11:49:00.183Z,66.70
2019-05-01T11:50:00.145Z,62.20
2019-05-01T11:51:00.109Z,64.00
2019-05-01T11:52:00.073Z,63.00
2019-05-01T11:53:00.037Z,65.40
2019-05-01T11:54:02.166Z,65.80
2019-05-01T11:54:59.954Z,63.40
2019-05-01T11:55:59.922Z,65.10
2019-05-01T11:56:59.883Z,68.80
2019-05-01T11:57:59.847Z,67.50
2019-05-01T11:58:59.810Z,70.30
2019-05-01T11:59:59.767Z,70.50
2019-05-01T12:00:59.732Z,70.50
2019-05-01T12:02:02.362Z,69.10
2019-05-01T12:02:59.660Z,71.20
2019-05-01T12:03:59.621Z,67.90
2019-05-01T12:04:59.582Z,68.90
2019-05-01T12:05:59.547Z,68.50
2019-05-01T12:06:59.510Z,67.40
2019-05-01T12:07:59.467Z,67.90
2019-05-01T12:08:59.430Z,67.50
2019-05-01T12:09:59.395Z,68.50
2019-05-01T12:10:59.360Z,66.50
2019-05-01T12:11:59.317Z,67.90
2019-05-01T12:12:59.283Z,68.80
2019-05-01T12:13:59.244Z,68.20
2019-05-01T12:14:59.205Z,67.10
2019-05-01T12:15:59.182Z,67.80
2019-05-01T12:16:59.135Z,69.10
2019-05-01T12:17:59.173Z,68.70
2019-05-01T12:18:59.066Z,68.40
2019-05-01T12:19:59.022Z,70.80
2019-05-01T12:20:58.988Z,65.90
2019-05-01T12:21:59.532Z,66.30
2019-05-01T12:22:58.909Z,65.50
2019-05-01T12:23:58.877Z,65.30
2019-05-01T12:24:58.840Z,66.50
2019-05-01T12:25:58.799Z,64.30
2019-05-01T12:26:58.764Z,65.80
2019-05-01T12:27:58.730Z,66.10
2019-05-01T12:28:58.723Z,65.00
2019-05-01T12:29:58.653Z,63.90
2019-05-01T12:30:58.620Z,65.00
2019-05-01T12:31:58.577Z,64.20
2019-05-01T12:32:58.541Z,65.90
2019-05-01T12:33:58.507Z,65.70
2019-05-01T12:34:58.468Z,63.30
2019-05-01T12:35:59.421Z,61.10
2019-05-01T12:36:58.394Z,63.10
2019-05-01T12:37:58.357Z,63.60
2019-05-01T12:38:58.373Z,61.50
2019-05-01T12:39:58.285Z,60.40
2019-05-01T12:40:58.300Z,60.40
2019-05-01T12:41:58.215Z,58.90
2019-05-01T12:42:58.175Z,61.90
2019-05-01T12:43:58.133Z,64.40
2019-05-01T12:44:58.097Z,63.60
2019-05-01T12:45:58.062Z,61.50
2019-05-01T12:46:58.023Z,62.60
2019-05-01T12:47:57.991Z,60.50
2019-05-01T12:48:57.952Z,60.50
2019-05-01T12:49:57.917Z,60.90
2019-05-01T12:50:57.880Z,59.30
2019-05-01T12:52:09.774Z,60.10
2019-05-01T12:52:58.021Z,58.50
2019-05-01T12:53:57.764Z,61.50
2019-05-01T12:54:57.731Z,62.20
2019-05-01T12:55:57.694Z,62.50
2019-05-01T12:56:57.659Z,62.60
2019-05-01T12:57:57.617Z,61.80
2019-05-01T12:58:57.581Z,60.50
2019-05-01T13:00:08.195Z,60.10
2019-05-01T13:00:57.513Z,61.70
2019-05-01T13:01:58.432Z,62.10
2019-05-01T13:02:58.428Z,59.70
2019-05-01T13:03:57.399Z,60.10
2019-05-01T13:04:57.361Z,60.00
2019-05-01T13:05:57.322Z,58.80
2019-05-01T13:06:57.288Z,59.50
2019-05-01T13:07:57.253Z,57.60
2019-05-01T13:08:57.218Z,57.00
2019-05-01T13:09:57.184Z,58.20
2019-05-01T13:10:57.927Z,59.90
2019-05-01T13:11:57.107Z,57.90
2019-05-01T13:12:57.069Z,58.30
2019-05-01T13:13:57.035Z,58.30
2019-05-01T13:14:56.997Z,58.40
2019-05-01T13:15:56.961Z,58.50
2019-05-01T13:16:56.920Z,57.50
2019-05-01T13:17:56.884Z,58.80
2019-05-01T13:18:56.849Z,57.70
2019-05-01T13:19:56.815Z,58.00
2019-05-01T13:20:56.779Z,60.40